sensor_id;sensor_type;location;lat;lon;timestamp;P1;durP1;ratioP1;P2;durP2;ratioP2
64520;SDS011;50896;46.714;17.322;2022-09-30T00:00:55;5.28;;;2.92;;
64520;SDS011;50896;46.714;17.322;2022-09-30T00:03:22;5.85;;;3.15;;
64520;SDS011;50896;46.714;17.322;2022-09-30T00:05:59;3.85;;;3.47;;
64520;SDS011;50896;46.714;17.322;2022-09-30T00:08:33;6.30;;;4.00;;
64520;SDS011;50896;46.714;17.322;2022-09-30T00:11:07;5.32;;;4.05;;
64520;SDS011;50896;46.714;17.322;2022-09-30T00:13:39;5.72;;;4.13;;
64520;SDS011;50896;46.714;17.322;2022-09-30T00:16:07;7.95;;;5.00;;
64520;SDS011;50896;46.714;17.322;2022-09-30T00:18:35;7.93;;;4.28;;
64520;SDS011;50896;46.714;17.322;2022-09-30T00:21:02;7.60;;;4.70;;
64520;SDS011;50896;46.714;17.322;2022-09-30T00:23:29;6.15;;;4.47;;
64520;SDS011;50896;46.714;17.322;2022-09-30T00:26:00;5.53;;;3.97;;
64520;SDS011;50896;46.714;17.322;2022-09-30T00:28:29;6.43;;;4.25;;
64520;SDS011;50896;46.714;17.322;2022-09-30T00:31:00;8.63;;;4.00;;
64520;SDS011;50896;46.714;17.322;2022-09-30T00:33:28;5.78;;;3.42;;
64520;SDS011;50896;46.714;17.322;2022-09-30T00:35:55;5.20;;;4.18;;
64520;SDS011;50896;46.714;17.322;2022-09-30T00:38:21;6.93;;;4.60;;
64520;SDS011;50896;46.714;17.322;2022-09-30T00:40:48;7.47;;;4.35;;
64520;SDS011;50896;46.714;17.322;2022-09-30T00:43:19;6.43;;;4.70;;
64520;SDS011;50896;46.714;17.322;2022-09-30T00:46:04;5.40;;;4.50;;
64520;SDS011;50896;46.714;17.322;2022-09-30T00:48:35;6.82;;;4.50;;
64520;SDS011;50896;46.714;17.322;2022-09-30T00:51:04;8.27;;;5.53;;
64520;SDS011;50896;46.714;17.322;2022-09-30T00:56:11;7.93;;;4.80;;
64520;SDS011;50896;46.714;17.322;2022-09-30T00:58:46;5.38;;;4.18;;
64520;SDS011;50896;46.714;17.322;2022-09-30T01:01:35;6.95;;;5.07;;
64520;SDS011;50896;46.714;17.322;2022-09-30T01:04:09;8.40;;;5.13;;
64520;SDS011;50896;46.714;17.322;2022-09-30T01:06:50;7.93;;;4.00;;
64520;SDS011;50896;46.714;17.322;2022-09-30T01:09:19;6.70;;;4.68;;
64520;SDS011;50896;46.714;17.322;2022-09-30T01:11:53;8.45;;;4.45;;
64520;SDS011;50896;46.714;17.322;2022-09-30T01:14:24;6.07;;;3.92;;
64520;SDS011;50896;46.714;17.322;2022-09-30T01:28:36;10.82;;;4.78;;
64520;SDS011;50896;46.714;17.322;2022-09-30T01:37:43;10.23;;;5.60;;
64520;SDS011;50896;46.714;17.322;2022-09-30T01:40:21;9.45;;;5.72;;
64520;SDS011;50896;46.714;17.322;2022-09-30T01:48:58;12.52;;;6.32;;
64520;SDS011;50896;46.714;17.322;2022-09-30T01:51:37;13.40;;;6.10;;
64520;SDS011;50896;46.714;17.322;2022-09-30T01:54:22;13.68;;;5.97;;
64520;SDS011;50896;46.714;17.322;2022-09-30T01:57:08;7.75;;;4.65;;
64520;SDS011;50896;46.714;17.322;2022-09-30T01:59:46;9.55;;;4.60;;
64520;SDS011;50896;46.714;17.322;2022-09-30T02:02:23;11.25;;;5.72;;
64520;SDS011;50896;46.714;17.322;2022-09-30T02:04:59;11.43;;;5.13;;
64520;SDS011;50896;46.714;17.322;2022-09-30T02:07:32;10.10;;;5.10;;
64520;SDS011;50896;46.714;17.322;2022-09-30T02:10:06;13.30;;;6.07;;
64520;SDS011;50896;46.714;17.322;2022-09-30T02:12:41;10.45;;;5.45;;
64520;SDS011;50896;46.714;17.322;2022-09-30T02:15:23;8.18;;;5.10;;
64520;SDS011;50896;46.714;17.322;2022-09-30T02:18:12;12.00;;;5.78;;
64520;SDS011;50896;46.714;17.322;2022-09-30T02:20:48;11.87;;;6.40;;
64520;SDS011;50896;46.714;17.322;2022-09-30T02:23:24;16.27;;;6.88;;
64520;SDS011;50896;46.714;17.322;2022-09-30T02:26:15;14.52;;;7.05;;
64520;SDS011;50896;46.714;17.322;2022-09-30T02:28:52;14.85;;;6.78;;
64520;SDS011;50896;46.714;17.322;2022-09-30T02:31:24;17.17;;;7.18;;
64520;SDS011;50896;46.714;17.322;2022-09-30T02:34:15;14.73;;;7.50;;
64520;SDS011;50896;46.714;17.322;2022-09-30T02:36:51;14.40;;;7.80;;
64520;SDS011;50896;46.714;17.322;2022-09-30T02:44:45;16.98;;;7.97;;
64520;SDS011;50896;46.714;17.322;2022-09-30T02:47:15;16.33;;;8.52;;
64520;SDS011;50896;46.714;17.322;2022-09-30T02:49:59;16.88;;;9.00;;
64520;SDS011;50896;46.714;17.322;2022-09-30T02:52:49;17.70;;;9.05;;
64520;SDS011;50896;46.714;17.322;2022-09-30T02:55:30;15.43;;;8.65;;
64520;SDS011;50896;46.714;17.322;2022-09-30T02:58:18;12.40;;;7.97;;
64520;SDS011;50896;46.714;17.322;2022-09-30T03:03:19;16.77;;;8.35;;
64520;SDS011;50896;46.714;17.322;2022-09-30T03:05:50;16.73;;;8.27;;
64520;SDS011;50896;46.714;17.322;2022-09-30T03:08:18;15.20;;;9.13;;
64520;SDS011;50896;46.714;17.322;2022-09-30T03:10:45;15.60;;;10.00;;
64520;SDS011;50896;46.714;17.322;2022-09-30T03:18:44;15.63;;;9.00;;
64520;SDS011;50896;46.714;17.322;2022-09-30T03:32:45;17.13;;;9.30;;
64520;SDS011;50896;46.714;17.322;2022-09-30T03:35:16;15.43;;;9.40;;
64520;SDS011;50896;46.714;17.322;2022-09-30T03:38:11;17.17;;;9.07;;
64520;SDS011;50896;46.714;17.322;2022-09-30T03:48:44;18.20;;;10.32;;
64520;SDS011;50896;46.714;17.322;2022-09-30T03:51:13;17.17;;;10.82;;
64520;SDS011;50896;46.714;17.322;2022-09-30T03:53:41;16.55;;;10.98;;
64520;SDS011;50896;46.714;17.322;2022-09-30T03:56:09;17.50;;;11.35;;
64520;SDS011;50896;46.714;17.322;2022-09-30T03:58:36;18.17;;;11.38;;
64520;SDS011;50896;46.714;17.322;2022-09-30T04:01:07;18.73;;;11.75;;
64520;SDS011;50896;46.714;17.322;2022-09-30T04:03:44;20.17;;;12.07;;
64520;SDS011;50896;46.714;17.322;2022-09-30T04:06:12;19.80;;;12.05;;
64520;SDS011;50896;46.714;17.322;2022-09-30T04:08:40;22.50;;;11.57;;
64520;SDS011;50896;46.714;17.322;2022-09-30T04:11:06;17.55;;;11.63;;
64520;SDS011;50896;46.714;17.322;2022-09-30T04:13:33;17.65;;;11.23;;
64520;SDS011;50896;46.714;17.322;2022-09-30T04:16:00;20.80;;;11.80;;
64520;SDS011;50896;46.714;17.322;2022-09-30T04:18:27;16.20;;;10.93;;
64520;SDS011;50896;46.714;17.322;2022-09-30T04:20:58;23.75;;;12.40;;
64520;SDS011;50896;46.714;17.322;2022-09-30T04:23:25;20.05;;;11.98;;
64520;SDS011;50896;46.714;17.322;2022-09-30T04:25:53;21.35;;;12.50;;
64520;SDS011;50896;46.714;17.322;2022-09-30T04:28:21;22.23;;;12.35;;
64520;SDS011;50896;46.714;17.322;2022-09-30T04:30:48;16.33;;;11.63;;
64520;SDS011;50896;46.714;17.322;2022-09-30T04:33:15;16.50;;;10.93;;
64520;SDS011;50896;46.714;17.322;2022-09-30T04:35:42;19.42;;;12.38;;
64520;SDS011;50896;46.714;17.322;2022-09-30T04:38:08;17.80;;;11.52;;
64520;SDS011;50896;46.714;17.322;2022-09-30T04:40:36;13.70;;;10.77;;
64520;SDS011;50896;46.714;17.322;2022-09-30T04:43:04;13.63;;;10.25;;
64520;SDS011;50896;46.714;17.322;2022-09-30T04:45:31;13.30;;;10.68;;
64520;SDS011;50896;46.714;17.322;2022-09-30T04:47:58;15.25;;;10.30;;
64520;SDS011;50896;46.714;17.322;2022-09-30T04:50:25;15.68;;;11.30;;
64520;SDS011;50896;46.714;17.322;2022-09-30T04:52:52;12.68;;;9.52;;
64520;SDS011;50896;46.714;17.322;2022-09-30T04:55:21;13.67;;;9.77;;
64520;SDS011;50896;46.714;17.322;2022-09-30T04:57:48;12.20;;;9.70;;
64520;SDS011;50896;46.714;17.322;2022-09-30T05:00:15;13.93;;;10.13;;
64520;SDS011;50896;46.714;17.322;2022-09-30T05:02:42;12.75;;;9.20;;
64520;SDS011;50896;46.714;17.322;2022-09-30T05:05:10;11.70;;;9.27;;
64520;SDS011;50896;46.714;17.322;2022-09-30T05:07:37;12.18;;;9.60;;
64520;SDS011;50896;46.714;17.322;2022-09-30T05:10:03;11.93;;;8.60;;
64520;SDS011;50896;46.714;17.322;2022-09-30T05:12:31;13.68;;;9.85;;
64520;SDS011;50896;46.714;17.322;2022-09-30T05:14:57;11.85;;;9.68;;
64520;SDS011;50896;46.714;17.322;2022-09-30T05:17:24;13.23;;;9.90;;
64520;SDS011;50896;46.714;17.322;2022-09-30T05:19:51;15.13;;;10.50;;
64520;SDS011;50896;46.714;17.322;2022-09-30T05:22:17;15.82;;;11.68;;
64520;SDS011;50896;46.714;17.322;2022-09-30T05:24:44;11.50;;;8.85;;
64520;SDS011;50896;46.714;17.322;2022-09-30T05:27:11;12.73;;;9.45;;
64520;SDS011;50896;46.714;17.322;2022-09-30T05:29:37;14.50;;;10.48;;
64520;SDS011;50896;46.714;17.322;2022-09-30T05:32:05;13.35;;;9.38;;
64520;SDS011;50896;46.714;17.322;2022-09-30T05:34:33;12.20;;;9.98;;
64520;SDS011;50896;46.714;17.322;2022-09-30T05:36:59;12.13;;;9.40;;
64520;SDS011;50896;46.714;17.322;2022-09-30T05:39:26;13.77;;;9.38;;
64520;SDS011;50896;46.714;17.322;2022-09-30T05:41:58;14.05;;;9.73;;
64520;SDS011;50896;46.714;17.322;2022-09-30T05:44:24;18.90;;;11.40;;
64520;SDS011;50896;46.714;17.322;2022-09-30T05:46:51;16.85;;;10.77;;
64520;SDS011;50896;46.714;17.322;2022-09-30T05:49:18;14.73;;;10.32;;
64520;SDS011;50896;46.714;17.322;2022-09-30T05:51:45;12.15;;;8.10;;
64520;SDS011;50896;46.714;17.322;2022-09-30T05:54:13;8.95;;;6.78;;
64520;SDS011;50896;46.714;17.322;2022-09-30T05:56:39;14.88;;;9.27;;
64520;SDS011;50896;46.714;17.322;2022-09-30T05:59:06;11.23;;;7.43;;
64520;SDS011;50896;46.714;17.322;2022-09-30T06:01:33;7.32;;;6.20;;
64520;SDS011;50896;46.714;17.322;2022-09-30T06:04:00;8.00;;;6.40;;
64520;SDS011;50896;46.714;17.322;2022-09-30T06:06:27;7.57;;;6.78;;
64520;SDS011;50896;46.714;17.322;2022-09-30T06:08:54;8.30;;;7.05;;
64520;SDS011;50896;46.714;17.322;2022-09-30T06:11:21;10.27;;;7.60;;
64520;SDS011;50896;46.714;17.322;2022-09-30T06:13:50;13.82;;;7.50;;
64520;SDS011;50896;46.714;17.322;2022-09-30T06:16:17;10.10;;;7.82;;
64520;SDS011;50896;46.714;17.322;2022-09-30T06:18:44;11.35;;;7.78;;
64520;SDS011;50896;46.714;17.322;2022-09-30T06:21:12;12.43;;;8.65;;
64520;SDS011;50896;46.714;17.322;2022-09-30T06:23:39;10.23;;;7.70;;
64520;SDS011;50896;46.714;17.322;2022-09-30T06:26:07;10.00;;;8.18;;
64520;SDS011;50896;46.714;17.322;2022-09-30T06:28:37;11.68;;;7.65;;
64520;SDS011;50896;46.714;17.322;2022-09-30T06:31:04;12.73;;;8.27;;
64520;SDS011;50896;46.714;17.322;2022-09-30T06:33:31;12.57;;;7.80;;
64520;SDS011;50896;46.714;17.322;2022-09-30T06:35:58;11.30;;;8.27;;
64520;SDS011;50896;46.714;17.322;2022-09-30T06:38:30;13.13;;;8.68;;
64520;SDS011;50896;46.714;17.322;2022-09-30T06:41:00;13.52;;;8.43;;
64520;SDS011;50896;46.714;17.322;2022-09-30T06:45:54;12.00;;;8.45;;
64520;SDS011;50896;46.714;17.322;2022-09-30T06:48:36;13.18;;;8.57;;
64520;SDS011;50896;46.714;17.322;2022-09-30T06:51:04;11.90;;;8.23;;
64520;SDS011;50896;46.714;17.322;2022-09-30T06:53:36;12.38;;;8.18;;
64520;SDS011;50896;46.714;17.322;2022-09-30T06:56:03;10.77;;;7.97;;
64520;SDS011;50896;46.714;17.322;2022-09-30T06:58:30;9.52;;;7.10;;
64520;SDS011;50896;46.714;17.322;2022-09-30T07:00:57;9.77;;;6.03;;
64520;SDS011;50896;46.714;17.322;2022-09-30T07:03:30;11.18;;;6.40;;
64520;SDS011;50896;46.714;17.322;2022-09-30T07:05:59;12.13;;;6.90;;
64520;SDS011;50896;46.714;17.322;2022-09-30T07:08:28;9.43;;;6.10;;
64520;SDS011;50896;46.714;17.322;2022-09-30T07:11:01;6.47;;;5.50;;
64520;SDS011;50896;46.714;17.322;2022-09-30T07:13:30;10.13;;;5.45;;
64520;SDS011;50896;46.714;17.322;2022-09-30T07:15:58;9.77;;;6.82;;
64520;SDS011;50896;46.714;17.322;2022-09-30T07:18:25;10.75;;;7.50;;
64520;SDS011;50896;46.714;17.322;2022-09-30T07:20:53;12.02;;;7.22;;
64520;SDS011;50896;46.714;17.322;2022-09-30T07:23:21;10.60;;;5.88;;
64520;SDS011;50896;46.714;17.322;2022-09-30T07:25:53;12.32;;;8.93;;
64520;SDS011;50896;46.714;17.322;2022-09-30T07:30:53;4.88;;;4.25;;
64520;SDS011;50896;46.714;17.322;2022-09-30T07:33:44;5.70;;;4.40;;
64520;SDS011;50896;46.714;17.322;2022-09-30T07:36:11;5.55;;;4.70;;
64520;SDS011;50896;46.714;17.322;2022-09-30T07:38:44;6.75;;;4.22;;
64520;SDS011;50896;46.714;17.322;2022-09-30T07:41:16;5.93;;;4.38;;
64520;SDS011;50896;46.714;17.322;2022-09-30T07:43:47;5.10;;;4.60;;
64520;SDS011;50896;46.714;17.322;2022-09-30T07:46:15;7.68;;;5.63;;
64520;SDS011;50896;46.714;17.322;2022-09-30T07:48:51;8.77;;;5.65;;
64520;SDS011;50896;46.714;17.322;2022-09-30T07:51:21;11.55;;;7.82;;
64520;SDS011;50896;46.714;17.322;2022-09-30T07:53:51;8.00;;;6.32;;
64520;SDS011;50896;46.714;17.322;2022-09-30T07:56:21;8.32;;;6.93;;
64520;SDS011;50896;46.714;17.322;2022-09-30T07:58:52;10.77;;;6.80;;
64520;SDS011;50896;46.714;17.322;2022-09-30T08:01:22;12.45;;;8.00;;
64520;SDS011;50896;46.714;17.322;2022-09-30T08:03:54;10.93;;;6.72;;
64520;SDS011;50896;46.714;17.322;2022-09-30T08:06:22;8.00;;;5.53;;
64520;SDS011;50896;46.714;17.322;2022-09-30T08:08:50;5.50;;;5.00;;
64520;SDS011;50896;46.714;17.322;2022-09-30T08:11:18;6.07;;;3.83;;
64520;SDS011;50896;46.714;17.322;2022-09-30T08:13:52;5.22;;;3.22;;
64520;SDS011;50896;46.714;17.322;2022-09-30T08:16:22;3.92;;;3.20;;
64520;SDS011;50896;46.714;17.322;2022-09-30T08:18:57;8.20;;;5.20;;
64520;SDS011;50896;46.714;17.322;2022-09-30T08:21:26;7.57;;;5.90;;
64520;SDS011;50896;46.714;17.322;2022-09-30T08:23:54;10.70;;;6.95;;
64520;SDS011;50896;46.714;17.322;2022-09-30T08:26:22;8.95;;;5.88;;
64520;SDS011;50896;46.714;17.322;2022-09-30T08:28:49;9.88;;;6.80;;
64520;SDS011;50896;46.714;17.322;2022-09-30T08:31:18;8.13;;;6.25;;
64520;SDS011;50896;46.714;17.322;2022-09-30T08:33:47;9.35;;;6.93;;
64520;SDS011;50896;46.714;17.322;2022-09-30T08:36:15;9.60;;;6.80;;
64520;SDS011;50896;46.714;17.322;2022-09-30T08:38:43;8.35;;;6.60;;
64520;SDS011;50896;46.714;17.322;2022-09-30T08:41:15;9.65;;;6.28;;
64520;SDS011;50896;46.714;17.322;2022-09-30T08:52:10;6.50;;;4.63;;
64520;SDS011;50896;46.714;17.322;2022-09-30T08:55:02;5.85;;;4.32;;
64520;SDS011;50896;46.714;17.322;2022-09-30T08:57:39;5.05;;;4.43;;
64520;SDS011;50896;46.714;17.322;2022-09-30T09:00:13;5.70;;;5.03;;
64520;SDS011;50896;46.714;17.322;2022-09-30T09:02:43;7.55;;;5.30;;
64520;SDS011;50896;46.714;17.322;2022-09-30T09:11:14;9.70;;;6.07;;
64520;SDS011;50896;46.714;17.322;2022-09-30T09:14:03;11.38;;;6.60;;
64520;SDS011;50896;46.714;17.322;2022-09-30T09:16:49;10.32;;;8.10;;
64520;SDS011;50896;46.714;17.322;2022-09-30T09:19:42;11.77;;;7.80;;
64520;SDS011;50896;46.714;17.322;2022-09-30T09:22:18;11.65;;;8.05;;
64520;SDS011;50896;46.714;17.322;2022-09-30T09:24:50;10.23;;;8.07;;
64520;SDS011;50896;46.714;17.322;2022-09-30T09:32:27;10.80;;;7.90;;
64520;SDS011;50896;46.714;17.322;2022-09-30T09:34:59;9.02;;;7.07;;
64520;SDS011;50896;46.714;17.322;2022-09-30T09:40:40;11.45;;;7.65;;
64520;SDS011;50896;46.714;17.322;2022-09-30T09:46:15;9.45;;;7.30;;
64520;SDS011;50896;46.714;17.322;2022-09-30T09:54:24;13.50;;;8.90;;
64520;SDS011;50896;46.714;17.322;2022-09-30T09:57:06;11.65;;;9.27;;
64520;SDS011;50896;46.714;17.322;2022-09-30T09:59:38;14.30;;;10.07;;
64520;SDS011;50896;46.714;17.322;2022-09-30T10:02:21;12.02;;;9.20;;
64520;SDS011;50896;46.714;17.322;2022-09-30T10:04:50;14.55;;;8.48;;
64520;SDS011;50896;46.714;17.322;2022-09-30T10:07:29;13.00;;;8.57;;
64520;SDS011;50896;46.714;17.322;2022-09-30T10:10:04;12.13;;;8.52;;
64520;SDS011;50896;46.714;17.322;2022-09-30T10:12:33;11.18;;;8.00;;
64520;SDS011;50896;46.714;17.322;2022-09-30T10:15:10;10.95;;;8.20;;
64520;SDS011;50896;46.714;17.322;2022-09-30T10:17:49;9.57;;;6.50;;
64520;SDS011;50896;46.714;17.322;2022-09-30T10:20:25;9.70;;;6.55;;
64520;SDS011;50896;46.714;17.322;2022-09-30T10:23:16;7.25;;;6.05;;
64520;SDS011;50896;46.714;17.322;2022-09-30T10:25:56;7.72;;;5.88;;
64520;SDS011;50896;46.714;17.322;2022-09-30T10:28:26;6.30;;;5.20;;
64520;SDS011;50896;46.714;17.322;2022-09-30T10:30:57;7.78;;;5.90;;
64520;SDS011;50896;46.714;17.322;2022-09-30T10:33:28;7.72;;;5.57;;
64520;SDS011;50896;46.714;17.322;2022-09-30T10:36:03;7.50;;;5.40;;
64520;SDS011;50896;46.714;17.322;2022-09-30T10:38:34;5.88;;;5.00;;
64520;SDS011;50896;46.714;17.322;2022-09-30T10:41:03;5.75;;;5.00;;
64520;SDS011;50896;46.714;17.322;2022-09-30T10:43:52;6.00;;;5.10;;
64520;SDS011;50896;46.714;17.322;2022-09-30T10:46:29;7.43;;;6.15;;
64520;SDS011;50896;46.714;17.322;2022-09-30T10:49:06;10.40;;;7.35;;
64520;SDS011;50896;46.714;17.322;2022-09-30T10:51:35;10.93;;;8.75;;
64520;SDS011;50896;46.714;17.322;2022-09-30T10:54:03;9.15;;;7.70;;
64520;SDS011;50896;46.714;17.322;2022-09-30T10:56:42;9.32;;;7.40;;
64520;SDS011;50896;46.714;17.322;2022-09-30T10:59:23;13.45;;;8.02;;
64520;SDS011;50896;46.714;17.322;2022-09-30T11:01:59;10.20;;;7.50;;
64520;SDS011;50896;46.714;17.322;2022-09-30T11:04:36;10.30;;;6.50;;
64520;SDS011;50896;46.714;17.322;2022-09-30T11:07:10;8.07;;;6.50;;
64520;SDS011;50896;46.714;17.322;2022-09-30T11:10:02;9.60;;;6.90;;
64520;SDS011;50896;46.714;17.322;2022-09-30T11:12:44;8.20;;;6.50;;
64520;SDS011;50896;46.714;17.322;2022-09-30T11:15:29;7.90;;;6.10;;
64520;SDS011;50896;46.714;17.322;2022-09-30T11:18:14;7.03;;;5.82;;
64520;SDS011;50896;46.714;17.322;2022-09-30T11:20:59;6.82;;;4.97;;
64520;SDS011;50896;46.714;17.322;2022-09-30T11:23:32;5.60;;;3.97;;
64520;SDS011;50896;46.714;17.322;2022-09-30T11:26:11;6.63;;;3.90;;
64520;SDS011;50896;46.714;17.322;2022-09-30T11:29:08;6.63;;;3.72;;
64520;SDS011;50896;46.714;17.322;2022-09-30T11:32:01;4.22;;;3.70;;
64520;SDS011;50896;46.714;17.322;2022-09-30T11:40:23;2.85;;;2.55;;
64520;SDS011;50896;46.714;17.322;2022-09-30T11:42:59;4.00;;;3.28;;
64520;SDS011;50896;46.714;17.322;2022-09-30T11:48:34;4.25;;;2.92;;
64520;SDS011;50896;46.714;17.322;2022-09-30T11:51:17;3.70;;;2.45;;
64520;SDS011;50896;46.714;17.322;2022-09-30T11:57:21;2.80;;;2.05;;
64520;SDS011;50896;46.714;17.322;2022-09-30T11:59:35;5.32;;;2.65;;
64520;SDS011;50896;46.714;17.322;2022-09-30T12:02:52;2.92;;;2.00;;
64520;SDS011;50896;46.714;17.322;2022-09-30T12:05:26;2.55;;;1.60;;
64520;SDS011;50896;46.714;17.322;2022-09-30T12:08:14;4.43;;;2.10;;
64520;SDS011;50896;46.714;17.322;2022-09-30T12:10:58;2.38;;;2.13;;
64520;SDS011;50896;46.714;17.322;2022-09-30T12:13:40;4.40;;;1.95;;
64520;SDS011;50896;46.714;17.322;2022-09-30T12:16:13;3.05;;;1.58;;
64520;SDS011;50896;46.714;17.322;2022-09-30T12:19:09;3.20;;;1.60;;
64520;SDS011;50896;46.714;17.322;2022-09-30T12:21:50;2.03;;;1.30;;
64520;SDS011;50896;46.714;17.322;2022-09-30T12:24:28;1.58;;;1.20;;
64520;SDS011;50896;46.714;17.322;2022-09-30T12:27:04;2.30;;;1.40;;
64520;SDS011;50896;46.714;17.322;2022-09-30T12:29:52;4.18;;;1.52;;
64520;SDS011;50896;46.714;17.322;2022-09-30T12:41:34;1.77;;;1.40;;
64520;SDS011;50896;46.714;17.322;2022-09-30T12:47:31;1.92;;;1.30;;
64520;SDS011;50896;46.714;17.322;2022-09-30T12:50:05;1.75;;;1.20;;
64520;SDS011;50896;46.714;17.322;2022-09-30T12:52:33;2.25;;;1.20;;
64520;SDS011;50896;46.714;17.322;2022-09-30T12:55:06;2.03;;;1.38;;
64520;SDS011;50896;46.714;17.322;2022-09-30T12:57:39;1.95;;;0.88;;
64520;SDS011;50896;46.714;17.322;2022-09-30T13:02:43;2.90;;;1.10;;
64520;SDS011;50896;46.714;17.322;2022-09-30T13:21:10;0.73;;;0.63;;
64520;SDS011;50896;46.714;17.322;2022-09-30T13:23:53;0.50;;;0.50;;
64520;SDS011;50896;46.714;17.322;2022-09-30T13:36:37;3.55;;;1.70;;
64520;SDS011;50896;46.714;17.322;2022-09-30T13:39:24;2.13;;;1.27;;
64520;SDS011;50896;46.714;17.322;2022-09-30T13:41:57;1.25;;;1.15;;
64520;SDS011;50896;46.714;17.322;2022-09-30T13:44:37;1.30;;;0.88;;
64520;SDS011;50896;46.714;17.322;2022-09-30T13:47:32;1.10;;;0.70;;
64520;SDS011;50896;46.714;17.322;2022-09-30T13:53:01;0.95;;;0.70;;
64520;SDS011;50896;46.714;17.322;2022-09-30T13:55:33;2.75;;;1.10;;
64520;SDS011;50896;46.714;17.322;2022-09-30T14:00:57;3.25;;;0.77;;
64520;SDS011;50896;46.714;17.322;2022-09-30T14:03:40;1.63;;;0.70;;
64520;SDS011;50896;46.714;17.322;2022-09-30T14:06:42;1.65;;;0.73;;
64520;SDS011;50896;46.714;17.322;2022-09-30T14:12:01;0.85;;;0.70;;
64520;SDS011;50896;46.714;17.322;2022-09-30T14:23:19;0.60;;;0.60;;
64520;SDS011;50896;46.714;17.322;2022-09-30T14:25:56;0.98;;;0.60;;
64520;SDS011;50896;46.714;17.322;2022-09-30T14:29:01;1.15;;;0.70;;
64520;SDS011;50896;46.714;17.322;2022-09-30T14:31:29;0.77;;;0.60;;
64520;SDS011;50896;46.714;17.322;2022-09-30T14:33:59;1.98;;;0.70;;
64520;SDS011;50896;46.714;17.322;2022-09-30T14:36:27;1.25;;;0.60;;
64520;SDS011;50896;46.714;17.322;2022-09-30T14:38:57;1.15;;;0.50;;
64520;SDS011;50896;46.714;17.322;2022-09-30T14:41:26;0.60;;;0.60;;
64520;SDS011;50896;46.714;17.322;2022-09-30T14:43:56;0.40;;;0.40;;
64520;SDS011;50896;46.714;17.322;2022-09-30T14:46:34;1.70;;;0.43;;
64520;SDS011;50896;46.714;17.322;2022-09-30T14:49:05;2.25;;;0.50;;
64520;SDS011;50896;46.714;17.322;2022-09-30T14:51:42;1.05;;;0.47;;
64520;SDS011;50896;46.714;17.322;2022-09-30T14:54:22;0.60;;;0.52;;
64520;SDS011;50896;46.714;17.322;2022-09-30T14:56:55;1.08;;;0.40;;
64520;SDS011;50896;46.714;17.322;2022-09-30T14:59:25;0.73;;;0.60;;
64520;SDS011;50896;46.714;17.322;2022-09-30T15:01:56;0.40;;;0.40;;
64520;SDS011;50896;46.714;17.322;2022-09-30T15:04:30;0.50;;;0.50;;
64520;SDS011;50896;46.714;17.322;2022-09-30T15:07:00;0.75;;;0.52;;
64520;SDS011;50896;46.714;17.322;2022-09-30T15:12:15;0.77;;;0.50;;
64520;SDS011;50896;46.714;17.322;2022-09-30T15:14:49;0.50;;;0.50;;
64520;SDS011;50896;46.714;17.322;2022-09-30T15:17:22;0.93;;;0.68;;
64520;SDS011;50896;46.714;17.322;2022-09-30T15:19:57;1.05;;;0.57;;
64520;SDS011;50896;46.714;17.322;2022-09-30T15:22:25;0.88;;;0.50;;
64520;SDS011;50896;46.714;17.322;2022-09-30T15:24:54;0.45;;;0.40;;
64520;SDS011;50896;46.714;17.322;2022-09-30T15:27:27;0.70;;;0.40;;
64520;SDS011;50896;46.714;17.322;2022-09-30T15:30:00;0.95;;;0.55;;
64520;SDS011;50896;46.714;17.322;2022-09-30T15:32:33;0.50;;;0.40;;
64520;SDS011;50896;46.714;17.322;2022-09-30T15:35:05;0.30;;;0.30;;
64520;SDS011;50896;46.714;17.322;2022-09-30T15:37:36;1.30;;;0.40;;
64520;SDS011;50896;46.714;17.322;2022-09-30T15:40:11;1.75;;;0.60;;
64520;SDS011;50896;46.714;17.322;2022-09-30T15:42:59;1.83;;;0.80;;
64520;SDS011;50896;46.714;17.322;2022-09-30T15:45:32;0.88;;;0.63;;
64520;SDS011;50896;46.714;17.322;2022-09-30T15:48:05;0.73;;;0.70;;
64520;SDS011;50896;46.714;17.322;2022-09-30T15:50:45;2.53;;;0.65;;
64520;SDS011;50896;46.714;17.322;2022-09-30T15:53:15;0.90;;;0.80;;
64520;SDS011;50896;46.714;17.322;2022-09-30T15:55:55;3.47;;;1.10;;
64520;SDS011;50896;46.714;17.322;2022-09-30T15:58:31;2.03;;;1.05;;
64520;SDS011;50896;46.714;17.322;2022-09-30T16:03:54;1.00;;;1.00;;
64520;SDS011;50896;46.714;17.322;2022-09-30T16:06:29;1.10;;;0.88;;
64520;SDS011;50896;46.714;17.322;2022-09-30T16:09:02;3.22;;;1.15;;
64520;SDS011;50896;46.714;17.322;2022-09-30T16:11:35;2.22;;;1.10;;
64520;SDS011;50896;46.714;17.322;2022-09-30T16:14:08;2.03;;;1.10;;
64520;SDS011;50896;46.714;17.322;2022-09-30T16:16:42;1.50;;;1.20;;
64520;SDS011;50896;46.714;17.322;2022-09-30T16:19:16;2.10;;;1.27;;
64520;SDS011;50896;46.714;17.322;2022-09-30T16:21:48;1.33;;;1.23;;
64520;SDS011;50896;46.714;17.322;2022-09-30T16:26:47;2.90;;;1.65;;
64520;SDS011;50896;46.714;17.322;2022-09-30T16:29:15;3.00;;;1.60;;
64520;SDS011;50896;46.714;17.322;2022-09-30T16:31:43;2.28;;;1.50;;
64520;SDS011;50896;46.714;17.322;2022-09-30T16:34:22;1.55;;;1.33;;
64520;SDS011;50896;46.714;17.322;2022-09-30T16:36:54;1.70;;;1.58;;
64520;SDS011;50896;46.714;17.322;2022-09-30T16:39:31;1.52;;;1.13;;
64520;SDS011;50896;46.714;17.322;2022-09-30T16:41:57;2.03;;;1.58;;
64520;SDS011;50896;46.714;17.322;2022-09-30T16:44:24;2.58;;;1.80;;
64520;SDS011;50896;46.714;17.322;2022-09-30T16:46:51;2.30;;;1.75;;
64520;SDS011;50896;46.714;17.322;2022-09-30T16:49:18;3.85;;;1.90;;
64520;SDS011;50896;46.714;17.322;2022-09-30T16:51:45;3.70;;;2.47;;
64520;SDS011;50896;46.714;17.322;2022-09-30T16:54:12;3.33;;;2.40;;
64520;SDS011;50896;46.714;17.322;2022-09-30T16:56:39;3.15;;;1.90;;
64520;SDS011;50896;46.714;17.322;2022-09-30T16:59:08;2.50;;;1.67;;
64520;SDS011;50896;46.714;17.322;2022-09-30T17:01:39;2.08;;;1.80;;
64520;SDS011;50896;46.714;17.322;2022-09-30T17:04:07;1.75;;;1.52;;
64520;SDS011;50896;46.714;17.322;2022-09-30T17:06:39;2.28;;;1.40;;
64520;SDS011;50896;46.714;17.322;2022-09-30T17:09:06;2.40;;;1.60;;
64520;SDS011;50896;46.714;17.322;2022-09-30T17:11:33;1.48;;;1.10;;
64520;SDS011;50896;46.714;17.322;2022-09-30T17:14:02;4.53;;;1.40;;
64520;SDS011;50896;46.714;17.322;2022-09-30T17:16:30;3.90;;;1.40;;
64520;SDS011;50896;46.714;17.322;2022-09-30T17:18:57;2.80;;;1.60;;
64520;SDS011;50896;46.714;17.322;2022-09-30T17:21:25;1.52;;;1.30;;
64520;SDS011;50896;46.714;17.322;2022-09-30T17:23:53;1.55;;;1.30;;
64520;SDS011;50896;46.714;17.322;2022-09-30T17:26:20;0.95;;;0.95;;
64520;SDS011;50896;46.714;17.322;2022-09-30T17:28:47;2.65;;;1.25;;
64520;SDS011;50896;46.714;17.322;2022-09-30T17:31:14;4.55;;;1.30;;
64520;SDS011;50896;46.714;17.322;2022-09-30T17:33:41;2.80;;;1.23;;
64520;SDS011;50896;46.714;17.322;2022-09-30T17:36:09;5.20;;;1.40;;
64520;SDS011;50896;46.714;17.322;2022-09-30T17:38:38;1.60;;;1.38;;
64520;SDS011;50896;46.714;17.322;2022-09-30T17:41:05;3.13;;;1.40;;
64520;SDS011;50896;46.714;17.322;2022-09-30T17:43:51;3.38;;;1.70;;
64520;SDS011;50896;46.714;17.322;2022-09-30T17:46:18;1.85;;;1.40;;
64520;SDS011;50896;46.714;17.322;2022-09-30T17:48:48;2.92;;;1.60;;
64520;SDS011;50896;46.714;17.322;2022-09-30T17:51:16;2.53;;;1.85;;
64520;SDS011;50896;46.714;17.322;2022-09-30T17:53:43;2.78;;;2.10;;
64520;SDS011;50896;46.714;17.322;2022-09-30T17:56:14;4.35;;;2.65;;